logo
Search for airport 
image banner adimage banner adimage banner ad
image banner ad

SJZG - Fazenda Sao Geraldo

Located in Caseara, Brazil

ICAO - SJZG, IATA -

Data provided by Airmate  

General information

Coordinates: S9°34'21" W49°42'57"
Elevation is 192 feet MSL.
Magnetic variation is -21.025174115° East
View others Airports in Tocatins

Operational data

Special qualification required
Current time UTC:
Current local time:
Weather at : - ( 0 km )
METAR: PFTO 231838Z AUTO 00000KT 10SM SCT010 SCT090 18/14 A3005 RMK AO2 $
View NOTAMs / SUP AIP / TFR affecting this airport [VIEW]
Communications frequencies: [VIEW]

Runways:

RWY identifierQFULength (ft)Width (ft)SurfaceLDA (ft)
09557782ASPH
27557782ASPH

Airport contact information

Address: Caseara Brazil

Satellite view of SJZG